createdAt,value
2019-04-30T00:01:07.522Z,84.60
2019-04-30T00:03:40.799Z,85.70
2019-04-30T00:06:10.524Z,84.40
2019-04-30T00:08:39.962Z,84.70
2019-04-30T00:11:10.922Z,84.50
2019-04-30T00:13:41.318Z,84.90
2019-04-30T00:16:15.362Z,84.30
2019-04-30T00:18:57.095Z,84.60
2019-04-30T00:21:18.742Z,84.10
2019-04-30T00:23:48.579Z,83.90
2019-04-30T00:26:18.199Z,84.20
2019-04-30T00:28:47.862Z,84.30
2019-04-30T00:31:23.654Z,85.20
2019-04-30T00:33:52.745Z,84.50
2019-04-30T00:36:21.438Z,85.20
2019-04-30T00:38:54.825Z,84.20
2019-04-30T00:41:25.577Z,85.00
2019-04-30T00:43:56.778Z,85.00
2019-04-30T00:46:29.323Z,84.90
2019-04-30T00:49:09.117Z,85.60
2019-04-30T00:51:32.074Z,85.90
2019-04-30T00:54:02.115Z,85.60
2019-04-30T00:56:32.291Z,85.30
2019-04-30T00:59:02.678Z,85.20
2019-04-30T01:01:51.748Z,85.90
2019-04-30T01:04:28.132Z,85.70
2019-04-30T01:07:00.178Z,86.30
2019-04-30T01:09:27.288Z,85.30
2019-04-30T01:11:56.693Z,85.40
2019-04-30T01:14:28.289Z,85.00
2019-04-30T01:16:59.287Z,85.00
2019-04-30T01:19:30.661Z,85.30
2019-04-30T01:21:59.432Z,85.80
2019-04-30T01:24:31.794Z,85.80
2019-04-30T01:27:06.910Z,85.10
2019-04-30T01:29:40.885Z,85.20
2019-04-30T01:32:12.245Z,86.00
2019-04-30T01:34:39.508Z,86.50
2019-04-30T01:37:08.744Z,85.10
2019-04-30T01:39:39.116Z,86.90
2019-04-30T01:42:11.425Z,85.30
2019-04-30T01:44:43.450Z,85.30
2019-04-30T01:47:10.253Z,85.40
2019-04-30T01:49:44.877Z,85.10
2019-04-30T01:52:14.225Z,85.00
2019-04-30T01:54:43.864Z,83.70
2019-04-30T01:57:15.064Z,83.30
2019-04-30T02:00:02.688Z,81.40
2019-04-30T02:02:39.683Z,81.80
2019-04-30T02:05:11.905Z,81.20
2019-04-30T02:07:41.503Z,81.60
2019-04-30T02:10:12.123Z,81.80
2019-04-30T02:12:41.563Z,80.90
2019-04-30T02:15:10.843Z,81.50
2019-04-30T02:17:40.306Z,81.80
2019-04-30T02:20:10.524Z,82.00
2019-04-30T02:22:39.624Z,81.30
2019-04-30T02:25:10.803Z,81.40
2019-04-30T02:27:40.688Z,81.40
2019-04-30T02:30:11.542Z,81.60
2019-04-30T02:32:41.284Z,81.60
2019-04-30T02:35:29.003Z,82.40
2019-04-30T02:38:12.008Z,81.40
2019-04-30T02:40:42.620Z,80.90
2019-04-30T02:43:13.583Z,81.30
2019-04-30T02:45:45.165Z,80.80
2019-04-30T02:48:16.364Z,80.70
2019-04-30T02:50:49.135Z,81.10
2019-04-30T02:53:52.885Z,81.10
2019-04-30T02:56:26.569Z,82.80
2019-04-30T02:58:54.885Z,83.20
2019-04-30T03:01:24.164Z,83.10
2019-04-30T03:03:56.460Z,83.30
2019-04-30T03:06:26.199Z,83.60
2019-04-30T03:08:56.124Z,83.90
2019-04-30T03:11:25.558Z,83.60
2019-04-30T03:13:54.823Z,83.70
2019-04-30T03:16:25.499Z,83.90
2019-04-30T03:18:56.379Z,83.90
2019-04-30T03:21:42.916Z,84.20
2019-04-30T03:24:12.538Z,84.80
2019-04-30T03:26:41.998Z,84.80
2019-04-30T03:29:11.768Z,85.10
2019-04-30T03:31:44.604Z,86.00
2019-04-30T03:34:24.132Z,86.80
2019-04-30T03:36:43.160Z,87.40
2019-04-30T03:39:12.641Z,88.20
2019-04-30T03:41:42.088Z,88.50
2019-04-30T03:44:21.814Z,88.00
2019-04-30T03:46:42.959Z,88.10
2019-04-30T03:49:13.490Z,87.40
2019-04-30T03:51:43.001Z,87.40
2019-04-30T03:54:15.303Z,87.70
2019-04-30T03:56:45.279Z,87.80
2019-04-30T03:59:14.559Z,87.50
2019-04-30T04:01:49.744Z,86.70
2019-04-30T04:04:30.907Z,86.50
2019-04-30T04:07:04.659Z,86.00
2019-04-30T04:09:41.560Z,85.80
2019-04-30T04:12:24.668Z,85.60
2019-04-30T04:14:56.096Z,85.60
2019-04-30T04:17:25.627Z,85.10
2019-04-30T04:19:59.562Z,85.00
2019-04-30T04:22:25.880Z,84.80
2019-04-30T04:24:56.040Z,84.70
2019-04-30T04:27:25.799Z,85.20
2019-04-30T04:30:00.724Z,85.20
2019-04-30T04:32:30.909Z,83.50
2019-04-30T04:35:00.349Z,83.40
2019-04-30T04:37:30.592Z,83.80
2019-04-30T04:40:00.050Z,83.90
2019-04-30T04:42:33.113Z,83.40
2019-04-30T04:45:03.080Z,83.10
2019-04-30T04:47:32.079Z,82.90
2019-04-30T04:50:02.042Z,82.60
2019-04-30T04:52:32.021Z,81.90
2019-04-30T04:55:10.253Z,82.40
2019-04-30T04:57:40.147Z,83.00
2019-04-30T05:00:11.498Z,82.50
2019-04-30T05:03:00.905Z,83.20
2019-04-30T05:05:30.239Z,82.80
2019-04-30T05:07:59.639Z,83.00
2019-04-30T05:10:29.505Z,83.90
2019-04-30T05:13:00.479Z,83.70
2019-04-30T05:15:30.140Z,84.20
2019-04-30T05:18:05.699Z,85.00
2019-04-30T05:20:35.199Z,84.50
2019-04-30T05:23:04.598Z,84.90
2019-04-30T05:25:34.629Z,84.70
2019-04-30T05:28:03.678Z,84.70
2019-04-30T05:30:33.239Z,84.60
2019-04-30T05:33:05.241Z,84.90
2019-04-30T05:35:34.719Z,85.30
2019-04-30T05:38:03.979Z,85.60
2019-04-30T05:40:33.939Z,85.80
2019-04-30T05:43:03.578Z,86.20
2019-04-30T05:45:33.775Z,86.40
2019-04-30T05:48:03.338Z,86.30
2019-04-30T05:50:35.960Z,87.00
2019-04-30T05:53:05.159Z,87.40
2019-04-30T05:55:36.999Z,88.00
2019-04-30T05:58:09.188Z,87.60
2019-04-30T06:00:39.979Z,88.00
2019-04-30T06:03:11.019Z,88.40
2019-04-30T06:05:41.181Z,88.20
2019-04-30T06:08:12.080Z,87.70
2019-04-30T06:10:42.828Z,88.70
2019-04-30T06:13:20.040Z,89.20
2019-04-30T06:15:58.814Z,88.90
2019-04-30T06:18:28.681Z,90.00
2019-04-30T06:20:59.531Z,89.00
2019-04-30T06:23:29.378Z,89.20
2019-04-30T06:26:06.927Z,88.80
2019-04-30T06:28:31.045Z,90.00
2019-04-30T06:31:00.427Z,89.30
2019-04-30T06:33:29.925Z,89.40
2019-04-30T06:36:00.719Z,90.20
2019-04-30T06:38:30.458Z,90.20
2019-04-30T06:40:59.939Z,90.40
2019-04-30T06:43:39.817Z,90.60
2019-04-30T06:46:09.258Z,90.40
2019-04-30T06:48:41.850Z,90.80
2019-04-30T06:51:11.398Z,91.20
2019-04-30T06:53:40.778Z,90.90
2019-04-30T06:56:10.318Z,91.30
2019-04-30T06:58:41.378Z,91.50
2019-04-30T07:01:11.024Z,91.20
2019-04-30T07:03:40.584Z,91.40
2019-04-30T07:06:10.224Z,91.40
2019-04-30T07:08:55.777Z,91.50
2019-04-30T07:11:33.039Z,91.70
2019-04-30T07:14:04.502Z,91.50
2019-04-30T07:16:34.138Z,91.80
2019-04-30T07:19:04.497Z,91.50
2019-04-30T07:21:36.412Z,91.90
2019-04-30T07:24:05.717Z,92.00
2019-04-30T07:26:38.799Z,91.60
2019-04-30T07:29:07.139Z,91.90
2019-04-30T07:31:39.294Z,92.40
2019-04-30T07:34:09.423Z,92.00
2019-04-30T07:36:48.292Z,92.50
2019-04-30T07:39:11.019Z,92.50
2019-04-30T07:41:59.955Z,92.80
2019-04-30T07:44:36.228Z,93.00
2019-04-30T07:47:02.072Z,93.30
2019-04-30T07:49:47.060Z,93.60
2019-04-30T07:52:04.064Z,94.20
2019-04-30T07:54:33.898Z,94.50
2019-04-30T07:57:03.239Z,94.70
2019-04-30T07:59:33.452Z,94.90
2019-04-30T08:02:10.871Z,95.40
2019-04-30T08:04:45.480Z,95.70
2019-04-30T08:07:15.811Z,96.00
2019-04-30T08:09:45.404Z,96.10
2019-04-30T08:12:25.907Z,96.70
2019-04-30T08:14:53.578Z,97.30
2019-04-30T08:17:23.618Z,97.10
2019-04-30T08:19:52.959Z,97.50
2019-04-30T08:22:26.177Z,99.10
2019-04-30T08:24:59.307Z,99.20
2019-04-30T08:27:32.997Z,99.90
2019-04-30T08:30:04.558Z,99.90
2019-04-30T08:32:34.002Z,99.90
2019-04-30T08:35:03.391Z,99.90
2019-04-30T08:37:33.236Z,99.90
2019-04-30T08:40:03.519Z,99.90
2019-04-30T08:42:35.283Z,99.90
2019-04-30T08:45:05.199Z,99.90
2019-04-30T08:47:35.030Z,99.90
2019-04-30T08:50:05.958Z,99.90
2019-04-30T08:52:37.112Z,99.90
2019-04-30T08:55:14.077Z,99.90
2019-04-30T08:57:39.744Z,99.90
2019-04-30T09:00:15.098Z,99.90
2019-04-30T09:02:44.240Z,99.90
2019-04-30T09:05:21.627Z,99.90
2019-04-30T09:07:51.912Z,99.90
2019-04-30T09:10:22.046Z,99.90
2019-04-30T09:12:52.054Z,99.90
2019-04-30T09:15:22.817Z,99.90
2019-04-30T09:18:03.240Z,99.90
2019-04-30T09:20:23.599Z,99.90
2019-04-30T09:22:56.382Z,99.90
2019-04-30T09:25:26.043Z,99.90
2019-04-30T09:28:04.515Z,99.90
2019-04-30T09:30:34.206Z,99.90
2019-04-30T09:33:11.201Z,99.90
2019-04-30T09:35:40.404Z,99.90
2019-04-30T09:38:11.684Z,99.90
2019-04-30T09:40:41.783Z,99.90
2019-04-30T09:43:11.401Z,99.90
2019-04-30T09:45:40.618Z,99.90
2019-04-30T09:48:09.797Z,99.90
2019-04-30T09:50:39.544Z,99.90
2019-04-30T09:53:10.266Z,99.90
2019-04-30T09:55:41.420Z,99.90
2019-04-30T09:58:17.045Z,99.90
2019-04-30T10:00:45.308Z,99.90
2019-04-30T10:03:15.197Z,99.90
2019-04-30T10:06:03.468Z,99.90
2019-04-30T10:08:32.589Z,99.90
2019-04-30T10:13:54.537Z,99.90
2019-04-30T10:16:25.460Z,99.90
2019-04-30T10:18:54.920Z,99.90
2019-04-30T10:21:25.560Z,99.90
2019-04-30T10:23:55.001Z,99.90
2019-04-30T10:26:24.922Z,99.90
2019-04-30T10:28:55.001Z,99.90
2019-04-30T10:31:24.461Z,99.90
2019-04-30T10:33:53.841Z,99.90
2019-04-30T10:36:23.604Z,99.90
2019-04-30T10:38:53.081Z,99.90
2019-04-30T10:41:24.977Z,99.90
2019-04-30T10:43:54.241Z,99.90
2019-04-30T10:46:23.621Z,99.90
2019-04-30T10:48:53.981Z,99.90
2019-04-30T10:51:24.122Z,99.90
2019-04-30T10:53:56.139Z,99.90
2019-04-30T10:56:26.038Z,99.90
2019-04-30T10:58:55.363Z,99.90
2019-04-30T11:01:24.724Z,99.90
2019-04-30T11:03:54.472Z,99.90
2019-04-30T11:06:25.777Z,99.90
2019-04-30T11:08:55.318Z,99.90
2019-04-30T11:11:25.438Z,99.90
2019-04-30T11:13:55.458Z,99.90
2019-04-30T11:16:27.478Z,99.90
2019-04-30T11:18:58.828Z,99.90
2019-04-30T11:21:29.595Z,99.90
2019-04-30T11:24:09.364Z,99.90
2019-04-30T11:26:40.212Z,99.90
2019-04-30T11:29:10.809Z,99.90
2019-04-30T11:31:42.204Z,99.90
2019-04-30T11:34:23.937Z,99.90
2019-04-30T11:36:53.442Z,99.90
2019-04-30T11:39:22.719Z,99.90
2019-04-30T11:41:54.627Z,99.90
2019-04-30T11:44:31.050Z,99.90
2019-04-30T11:47:01.140Z,99.90
2019-04-30T11:49:30.838Z,99.90
2019-04-30T11:52:00.281Z,99.90
2019-04-30T11:54:29.858Z,99.90
2019-04-30T11:56:59.344Z,99.90
2019-04-30T11:59:29.752Z,99.90
2019-04-30T12:02:01.705Z,99.90
2019-04-30T12:04:31.917Z,99.90
2019-04-30T12:07:02.824Z,99.90
2019-04-30T12:09:51.703Z,99.90
2019-04-30T12:12:20.865Z,99.90
2019-04-30T12:14:50.150Z,99.90
2019-04-30T12:17:19.434Z,99.90
2019-04-30T12:19:51.833Z,99.90
2019-04-30T12:22:21.065Z,99.90
2019-04-30T12:25:02.552Z,99.90
2019-04-30T12:27:23.894Z,99.90
2019-04-30T12:29:56.071Z,99.90
2019-04-30T12:32:25.908Z,99.90
2019-04-30T12:34:55.293Z,99.90
2019-04-30T12:37:24.708Z,99.90
2019-04-30T12:39:53.967Z,99.90
2019-04-30T12:42:24.129Z,99.90
2019-04-30T12:44:53.367Z,99.90
2019-04-30T12:47:22.687Z,99.90
2019-04-30T12:49:53.647Z,99.90
2019-04-30T12:52:24.705Z,99.90
2019-04-30T12:54:55.680Z,99.90
2019-04-30T12:57:34.779Z,99.90
2019-04-30T13:00:05.568Z,99.90
2019-04-30T13:02:35.386Z,99.90
2019-04-30T13:05:08.689Z,99.90
2019-04-30T13:07:39.840Z,99.90
2019-04-30T13:10:09.094Z,99.90
2019-04-30T13:12:39.640Z,99.90
2019-04-30T13:15:10.947Z,99.90
2019-04-30T13:17:40.518Z,99.90
2019-04-30T13:20:18.757Z,99.90
2019-04-30T13:22:40.598Z,99.90
2019-04-30T13:25:10.625Z,99.90
2019-04-30T13:27:44.413Z,99.90
2019-04-30T13:30:15.942Z,99.90
2019-04-30T13:35:45.162Z,99.90
2019-04-30T13:38:26.183Z,99.90
2019-04-30T13:40:58.809Z,99.90
2019-04-30T13:43:49.322Z,99.90
2019-04-30T13:46:23.260Z,99.90
2019-04-30T13:48:54.541Z,99.90
2019-04-30T13:51:25.618Z,99.90
2019-04-30T13:53:57.657Z,99.90
2019-04-30T13:56:29.279Z,99.90
2019-04-30T13:59:00.458Z,99.90
2019-04-30T14:01:30.904Z,99.90
2019-04-30T14:04:05.785Z,99.90
2019-04-30T14:06:41.084Z,99.90
2019-04-30T14:09:16.309Z,99.90
2019-04-30T14:11:46.143Z,99.90
2019-04-30T14:14:20.603Z,99.90
2019-04-30T14:16:52.924Z,99.90
2019-04-30T14:19:22.823Z,99.90
2019-04-30T14:21:53.263Z,99.90
2019-04-30T14:24:25.062Z,99.90
2019-04-30T14:27:02.226Z,99.90
2019-04-30T14:29:39.587Z,99.90
2019-04-30T14:32:09.963Z,99.90
2019-04-30T14:34:39.681Z,99.90
2019-04-30T14:37:11.361Z,99.90
2019-04-30T14:39:41.956Z,99.90
2019-04-30T14:42:15.564Z,99.90
2019-04-30T14:44:49.539Z,99.90
2019-04-30T14:47:32.631Z,99.90
2019-04-30T14:50:05.413Z,99.90
2019-04-30T14:52:41.285Z,99.90
2019-04-30T14:55:19.006Z,99.90
2019-04-30T14:57:51.957Z,99.90
2019-04-30T15:00:44.301Z,99.90
2019-04-30T15:03:19.386Z,99.90
2019-04-30T15:05:51.705Z,99.90
2019-04-30T15:08:23.818Z,99.90
2019-04-30T15:10:57.808Z,99.90
2019-04-30T15:13:34.278Z,99.90
2019-04-30T15:16:05.519Z,99.90
2019-04-30T15:18:42.579Z,99.90
2019-04-30T15:21:12.331Z,99.90
2019-04-30T15:23:43.999Z,99.90
2019-04-30T15:26:22.071Z,99.90
2019-04-30T15:28:49.197Z,99.90
2019-04-30T15:31:20.462Z,99.90
2019-04-30T15:34:02.292Z,99.90
2019-04-30T15:36:25.198Z,99.90
2019-04-30T15:38:58.705Z,99.90
2019-04-30T15:41:30.106Z,99.90
2019-04-30T15:44:02.121Z,99.90
2019-04-30T15:46:33.051Z,99.90
2019-04-30T15:49:04.568Z,99.90
2019-04-30T15:51:35.511Z,99.90
2019-04-30T15:54:06.064Z,99.90
2019-04-30T15:56:40.825Z,99.90
2019-04-30T15:59:13.727Z,99.90
2019-04-30T16:01:48.410Z,99.90
2019-04-30T16:04:31.186Z,99.90
2019-04-30T16:07:02.723Z,99.90
2019-04-30T16:09:35.120Z,99.90
2019-04-30T16:12:12.396Z,99.90
2019-04-30T16:14:46.934Z,99.90
2019-04-30T16:17:29.221Z,99.90
2019-04-30T16:20:12.759Z,99.90
2019-04-30T16:22:43.901Z,99.90
2019-04-30T16:25:14.339Z,99.90
2019-04-30T16:27:44.181Z,99.90
2019-04-30T16:30:14.407Z,99.90
2019-04-30T16:32:50.647Z,99.90
2019-04-30T16:35:19.758Z,99.90
2019-04-30T16:37:49.866Z,99.90
2019-04-30T16:40:20.392Z,99.90
2019-04-30T16:42:50.504Z,99.90
2019-04-30T16:45:20.340Z,99.90
2019-04-30T16:47:52.908Z,99.90
2019-04-30T16:50:23.270Z,99.90
2019-04-30T16:52:52.689Z,99.90
2019-04-30T16:55:22.425Z,99.90
2019-04-30T16:57:51.638Z,99.90
2019-04-30T17:00:22.984Z,99.90
2019-04-30T17:02:54.445Z,99.90
2019-04-30T17:05:29.447Z,99.90
2019-04-30T17:08:01.865Z,99.90
2019-04-30T17:10:50.470Z,99.90
2019-04-30T17:13:33.062Z,99.90
2019-04-30T17:16:11.246Z,99.90
2019-04-30T17:18:41.863Z,99.90
2019-04-30T17:21:11.122Z,99.90
2019-04-30T17:23:40.820Z,99.90
2019-04-30T17:26:10.740Z,99.90
2019-04-30T17:28:40.339Z,99.90
2019-04-30T17:31:10.018Z,99.90
2019-04-30T17:33:39.478Z,99.90
2019-04-30T17:36:11.134Z,99.90
2019-04-30T17:38:40.422Z,99.90
2019-04-30T17:41:09.758Z,99.90
2019-04-30T17:43:41.815Z,99.90
2019-04-30T17:46:11.538Z,99.90
2019-04-30T17:48:41.071Z,99.90
2019-04-30T17:51:10.358Z,99.90
2019-04-30T17:53:41.330Z,99.90
2019-04-30T17:56:10.607Z,99.90
2019-04-30T17:58:40.555Z,99.90
2019-04-30T18:01:10.266Z,99.90
2019-04-30T18:03:41.369Z,99.90
2019-04-30T18:06:10.688Z,99.90
2019-04-30T18:08:40.371Z,99.90
2019-04-30T18:11:10.359Z,99.90
2019-04-30T18:13:40.421Z,99.90
2019-04-30T18:16:10.586Z,99.90
2019-04-30T18:18:59.825Z,99.90
2019-04-30T18:21:30.643Z,99.90
2019-04-30T18:24:12.882Z,99.90
2019-04-30T18:26:47.099Z,99.90
2019-04-30T18:29:16.228Z,99.90
2019-04-30T18:31:46.437Z,99.90
2019-04-30T18:34:19.445Z,99.90
2019-04-30T18:36:52.720Z,99.90
2019-04-30T18:39:21.782Z,99.90
2019-04-30T18:41:54.202Z,99.90
2019-04-30T18:44:26.561Z,99.90
2019-04-30T18:46:58.931Z,99.90
2019-04-30T18:49:28.696Z,99.90
2019-04-30T18:51:59.123Z,99.90
2019-04-30T18:54:29.403Z,99.90
2019-04-30T18:56:59.380Z,99.90
2019-04-30T18:59:32.469Z,99.90
2019-04-30T19:02:00.599Z,99.90
2019-04-30T19:04:34.885Z,99.90
2019-04-30T19:07:06.745Z,99.90
2019-04-30T19:09:41.302Z,99.90
2019-04-30T19:12:30.147Z,99.90
2019-04-30T19:15:13.606Z,99.90
2019-04-30T19:17:45.242Z,99.90
2019-04-30T19:20:22.367Z,99.90
2019-04-30T19:22:52.105Z,99.90
2019-04-30T19:25:21.566Z,99.90
2019-04-30T19:27:51.256Z,99.90
2019-04-30T19:30:21.781Z,99.90
2019-04-30T19:32:51.181Z,99.90
2019-04-30T19:35:20.644Z,99.90
2019-04-30T19:37:52.339Z,99.90
2019-04-30T19:40:28.632Z,99.90
2019-04-30T19:42:56.310Z,99.90
2019-04-30T19:45:26.250Z,99.90
2019-04-30T19:47:56.121Z,99.90
2019-04-30T19:50:26.164Z,99.90
2019-04-30T19:52:55.624Z,99.90
2019-04-30T19:55:25.573Z,99.90
2019-04-30T19:57:55.123Z,99.90
2019-04-30T20:00:26.781Z,99.90
2019-04-30T20:02:59.419Z,99.90
2019-04-30T20:05:28.741Z,99.90
2019-04-30T20:07:59.229Z,99.90
2019-04-30T20:10:28.862Z,99.90
2019-04-30T20:12:59.717Z,99.90
2019-04-30T20:15:30.401Z,99.90
2019-04-30T20:18:01.090Z,99.90
2019-04-30T20:20:32.725Z,99.90
2019-04-30T20:23:03.967Z,99.90
2019-04-30T20:25:37.225Z,99.90
2019-04-30T20:28:08.344Z,99.90
2019-04-30T20:30:39.298Z,99.90
2019-04-30T20:33:18.993Z,99.90
2019-04-30T20:35:55.987Z,99.90
2019-04-30T20:38:38.104Z,99.90
2019-04-30T20:41:09.992Z,99.90
2019-04-30T20:43:39.985Z,99.90
2019-04-30T20:46:13.123Z,99.90
2019-04-30T20:48:42.722Z,99.90
2019-04-30T20:51:17.185Z,99.90
2019-04-30T20:53:46.961Z,99.90
2019-04-30T20:56:19.195Z,99.90
2019-04-30T20:58:58.028Z,99.90
2019-04-30T21:01:22.677Z,99.90
2019-04-30T21:03:53.109Z,99.90
2019-04-30T21:06:22.477Z,99.90
2019-04-30T21:08:51.498Z,99.90
2019-04-30T21:11:21.978Z,99.90
2019-04-30T21:13:51.737Z,99.90
2019-04-30T21:16:21.082Z,99.90
2019-04-30T21:18:51.262Z,99.90
2019-04-30T21:21:20.618Z,99.90
2019-04-30T21:23:50.598Z,99.90
2019-04-30T21:26:20.707Z,99.90
2019-04-30T21:28:51.298Z,99.90
2019-04-30T21:31:42.686Z,99.90
2019-04-30T21:34:22.999Z,99.90
2019-04-30T21:36:52.677Z,99.90
2019-04-30T21:39:23.237Z,99.90
2019-04-30T21:41:53.718Z,99.90
2019-04-30T21:44:23.418Z,99.90
2019-04-30T21:46:56.359Z,99.90
2019-04-30T21:49:26.497Z,99.90
2019-04-30T21:51:56.457Z,99.90
2019-04-30T21:54:25.883Z,99.90
2019-04-30T21:56:55.259Z,99.90
2019-04-30T21:59:24.978Z,99.90
2019-04-30T22:01:54.883Z,99.90
2019-04-30T22:04:24.224Z,99.90
2019-04-30T22:06:53.759Z,99.90
2019-04-30T22:09:23.079Z,99.90
2019-04-30T22:11:53.120Z,99.90
2019-04-30T22:14:22.685Z,99.90
2019-04-30T22:16:53.573Z,99.90
2019-04-30T22:19:22.941Z,99.90
2019-04-30T22:21:52.358Z,99.90
2019-04-30T22:24:21.758Z,99.90
2019-04-30T22:26:50.837Z,99.90
2019-04-30T22:29:20.517Z,99.90
2019-04-30T22:31:50.222Z,99.90
2019-04-30T22:34:19.718Z,99.90
2019-04-30T22:36:49.398Z,99.90
2019-04-30T22:39:37.017Z,99.90
2019-04-30T22:42:30.218Z,99.90
2019-04-30T22:45:00.778Z,99.90
2019-04-30T22:47:30.419Z,99.90
2019-04-30T22:50:00.280Z,99.90
2019-04-30T22:52:31.557Z,99.90
2019-04-30T22:55:01.220Z,99.90
2019-04-30T22:57:30.919Z,99.90
2019-04-30T23:00:00.977Z,99.90
2019-04-30T23:02:32.227Z,99.90
2019-04-30T23:05:02.760Z,99.90
2019-04-30T23:07:32.560Z,99.90
2019-04-30T23:10:02.380Z,99.90
2019-04-30T23:12:32.999Z,99.90
2019-04-30T23:15:02.480Z,99.90
2019-04-30T23:17:33.279Z,99.90
2019-04-30T23:20:03.539Z,99.90
2019-04-30T23:22:38.281Z,99.90
2019-04-30T23:25:07.698Z,99.90
2019-04-30T23:27:37.760Z,99.90
2019-04-30T23:30:08.479Z,99.90
2019-04-30T23:32:38.264Z,99.90
2019-04-30T23:35:08.918Z,99.90
2019-04-30T23:37:42.120Z,99.90
2019-04-30T23:40:29.218Z,99.90
2019-04-30T23:42:59.084Z,99.90
2019-04-30T23:45:29.259Z,99.90
2019-04-30T23:47:59.380Z,99.90
2019-04-30T23:50:30.998Z,99.90
2019-04-30T23:53:03.238Z,99.90
2019-04-30T23:55:33.077Z,99.90
2019-04-30T23:58:02.359Z,99.90
